Oklahoma City, OK (73159)

10:05 AM CDT on September 01, 2014 (GMT -0500)
I-240 and Western | Change Station
CLOSE
Current Station
Personal Weather Station
Location: Oklahoma City, OK
Elevation: 1260 ft
Nearby Weather Stations

Elev 1260 ft 35.39 °N, 97.53 °W | Updated 1 second ago

Mostly Cloudy
Mostly Cloudy
83.8 °F
Feels Like 81 °F
N
0.0
Wind Variable Wind from SE
Gusts 0.0 mph

Today
High -- | Low -- °F
--% Chance of Precip.
Yesterday
High -- | Low -- °F
Precip. -- in
7:02 AM 7:57 PM
Waxing Crescent, 41% visible
Pressure 29.83 in
Visibility 10.0 miles
Clouds Mostly Cloudy 2500 ft
Mostly Cloudy 13000 ft
Heat Index 81 °F
Dew Point 41 °F
Humidity 22%
Rainfall 0.00 in
Snow Depth Not available.
UV 1 out of 12
Pollen 11.60 out of 12
Ozone Good
PM2.5 Good
Flu Activity Not available.
METAR KOKC 011352Z 15012G22KT 10SM BKN025 BKN130 27/21 A2989 RMK AO2 SLP102 T02670206 $

More Conditions Fewer Conditions

Pressure 29.83 in
Visibility 10.0 miles
Clouds Mostly Cloudy 2500 ft
Mostly Cloudy 13000 ft
Heat Index 81 °F
Dew Point 41 °F
Humidity 22%
Rainfall 0.00 in
Snow Depth Not available.
UV 1 out of 12
Pollen 11.60 out of 12
Ozone Good
PM2.5 Good
Flu Activity Not available.
METAR KOKC 011352Z 15012G22KT 10SM BKN025 BKN130 27/21 A2989 RMK AO2 SLP102 T02670206 $

More Conditions Fewer Conditions

10-Day Weather Forecast

Almanac

Astronomy

Sep. 01, 2014 Rise Set
Actual Time 7:02 AM CDT 7:57 PM CDT
Civil Twilight 6:36 AM CDT 8:23 PM CDT
Nautical Twilight 6:05 AM CDT 8:53 PM CDT
Astronomical Twilight 5:34 AM CDT 9:25 PM CDT
Moon 1:35 PM CDT No Moon Set
Length of Visible Light 13h 46m
Length of Day
12h 54m
Tomorrow will be 2m 8s shorter.
Waxing Crescent, 41% of the Moon is Illuminated
Today
Waxing Crescent
Sep 2
First Quarter
Sep 8
Full
Sep 15
Last Quarter
Sep 24
New

Today's Extremes

State Highs State Lows

Community

WunderPhotos

Upload Photos

1,749,256 photos uploaded!

Nearby

Air Quality

  Air Quality AQ Index Pollutant
Yesterday Moderate
OZONE
Yesterday Good
PM2.5
Current Good
PM2.5
Current Good
OZONE
Monday Moderate
OZONE
Monday Good
PM2.5
Tuesday Moderate
OZONE
Tuesday Good
PM2.5
Wednesday Moderate
OZONE
Wednesday Good
PM2.5

Snow Depth

Station Depth Elevation
No new snow has been reported.

Earthquake Activity

City Distance Mag. Time & Date
Perry, Oklahoma 55 miles 3.1 6:46 AM CDT
2014-09-01
Jones, Oklahoma 21 miles 3.1 1:49 PM CDT
2014-08-31
Enid, Oklahoma 86 miles 3.4 11:57 AM CDT
2014-08-31
Enid, Oklahoma 86 miles 3.7 2:20 AM CDT
2014-08-31
Minimum magnitude displayed is 2.5.

Coastal Water Temperatures

Place Temperature
No Stations Reporting

Nearby Weather Stations